Map

Track Data

SID SEASON NUMBER BASIN SUBBASIN NAME ISO_TIME NATURE LAT LON WMO_WIND WMO_PRES WMO_AGENCY TRACK_TYPE DIST2LAND LANDFALL IFLAG USA_AGENCY USA_ATCF_ID USA_LAT USA_LON USA_RECORD USA_STATUS USA_WIND USA_PRES USA_SSHS USA_R34_NE USA_R34_SE USA_R34_SW USA_R34_NW USA_R50_NE USA_R50_SE USA_R50_SW USA_R50_NW USA_R64_NE USA_R64_SE USA_R64_SW USA_R64_NW USA_POCI USA_ROCI USA_RMW USA_EYE TOKYO_LAT TOKYO_LON TOKYO_GRADE TOKYO_WIND TOKYO_PRES TOKYO_R50_DIR TOKYO_R50_LONG TOKYO_R50_SHORT TOKYO_R30_DIR TOKYO_R30_LONG TOKYO_R30_SHORT TOKYO_LAND CMA_LAT CMA_LON CMA_CAT CMA_WIND CMA_PRES HKO_LAT HKO_LON HKO_CAT HKO_WIND HKO_PRES NEWDELHI_LAT NEWDELHI_LON NEWDELHI_GRADE NEWDELHI_WIND NEWDELHI_PRES NEWDELHI_CI NEWDELHI_DP NEWDELHI_POCI REUNION_LAT REUNION_LON REUNION_TYPE REUNION_WIND REUNION_PRES REUNION_TNUM REUNION_CI REUNION_RMW REUNION_R34_NE REUNION_R34_SE REUNION_R34_SW REUNION_R34_NW REUNION_R50_NE REUNION_R50_SE REUNION_R50_SW REUNION_R50_NW REUNION_R64_NE REUNION_R64_SE REUNION_R64_SW REUNION_R64_NW BOM_LAT BOM_LON BOM_TYPE BOM_WIND BOM_PRES BOM_TNUM BOM_CI BOM_RMW BOM_R34_NE BOM_R34_SE BOM_R34_SW BOM_R34_NW BOM_R50_NE BOM_R50_SE BOM_R50_SW BOM_R50_NW BOM_R64_NE BOM_R64_SE BOM_R64_SW BOM_R64_NW BOM_ROCI BOM_POCI BOM_EYE BOM_POS_METHOD BOM_PRES_METHOD NADI_LAT NADI_LON NADI_CAT NADI_WIND NADI_PRES WELLINGTON_LAT WELLINGTON_LON WELLINGTON_WIND WELLINGTON_PRES DS824_LAT DS824_LON DS824_STAGE DS824_WIND DS824_PRES TD9636_LAT TD9636_LON TD9636_STAGE TD9636_WIND TD9636_PRES TD9635_LAT TD9635_LON TD9635_WIND TD9635_PRES TD9635_ROCI NEUMANN_LAT NEUMANN_LON NEUMANN_CLASS NEUMANN_WIND NEUMANN_PRES MLC_LAT MLC_LON MLC_CLASS MLC_WIND MLC_PRES USA_GUST BOM_GUST BOM_GUST_PER REUNION_GUST REUNION_GUST_PER USA_SEAHGT USA_SEARAD_NE USA_SEARAD_SE USA_SEARAD_SW USA_SEARAD_NW STORM_SPEED STORM_DIR
1971196N20089 1971 74 NI BB NOT_NAMED 1971-07-15 03:00:00 NR 20.0000 89.1000 main 178 123 __________O___ -1 20.0000 89.1000 1 11 332
1971196N20089 1971 74 NI BB NOT_NAMED 1971-07-15 06:00:00 TS 20.4893 88.8250 main 123 78 O________OP___ jtwc_io IO051971 20.5000 88.8000 -1 20.5000 88.8000 TC 25 20.4786 88.8501 1 11 334
1971196N20089 1971 74 NI BB NOT_NAMED 1971-07-15 09:00:00 TS 20.9595 88.6070 main 67 22 P________PP___ IO051971 20.9700 88.6052 -1 20.9700 88.6052 TC 25 20.9456 88.6094 1 10 336
1971196N20089 1971 74 NI BB NOT_NAMED 1971-07-15 12:00:00 TS 21.3959 88.3956 main 22 0 O________OP___ jtwc_io IO051971 21.4000 88.4000 -1 21.4000 88.4000 TC 25 21.3897 88.3890 1 9 335
1971196N20089 1971 74 NI BB NOT_NAMED 1971-07-15 15:00:00 TS 21.7767 88.1900 main 0 0 P________PO___ IO051971 21.7650 88.1850 -1 21.7650 88.1850 TC 25 21.8000 88.2000 1 8 334
1971196N20089 1971 74 NI BB NOT_NAMED 1971-07-15 18:00:00 TS 22.1229 88.0159 main 0 0 O________OP___ jtwc_io IO051971 22.1000 88.0000 -1 22.1000 88.0000 TC 25 22.1687 88.0478 1 7 340
1971196N20089 1971 74 NI BB NOT_NAMED 1971-07-15 21:00:00 TS 22.4723 87.9094 main 0 0 P________PP___ IO051971 22.4574 87.9072 -1 22.4574 87.9072 TC 25 22.5020 87.9137 1 7 343
1971196N20089 1971 74 NI BB NOT_NAMED 1971-07-16 00:00:00 TS 22.8031 87.7910 main 0 0 O________OP___ jtwc_io IO051971 22.8000 87.8000 -1 22.8000 87.8000 TC 25 22.8093 87.7729 1 7 334
1971196N20089 1971 74 NI BB NOT_NAMED 1971-07-16 03:00:00 TS 23.1050 87.5817 main 0 0 P________PO___ IO051971 23.1075 87.5725 -1 23.1075 87.5725 TC 25 23.1000 87.6000 1 7 324
1971196N20089 1971 74 NI BB NOT_NAMED 1971-07-16 06:00:00 TS 23.4060 87.3218 main 0 0 O________OP___ jtwc_io IO051971 23.4000 87.3000 -1 23.4000 87.3000 TC 25 23.4179 87.3653 1 8 322
1971196N20089 1971 74 NI BB NOT_NAMED 1971-07-16 09:00:00 TS 23.7158 87.0701 main 0 0 P________PP___ IO051971 23.7149 87.0574 -1 23.7149 87.0574 TC 25 23.7175 87.0955 1 8 321
1971196N20089 1971 74 NI BB NOT_NAMED 1971-07-16 12:00:00 TS 23.9945 86.8010 main 0 0 O________OP___ jtwc_io IO051971 24.0000 86.8000 -1 24.0000 86.8000 TC 25 23.9834 86.8029 1 7 315
1971196N20089 1971 74 NI BB NOT_NAMED 1971-07-16 15:00:00 TS 24.2200 86.5100 main 0 0 P________PO___ IO051971 24.2299 86.5149 -1 24.2299 86.5149 TC 25 24.2000 86.5000 1 7 305
1971196N20089 1971 74 NI BB NOT_NAMED 1971-07-16 18:00:00 TS 24.3875 86.1955 main 0 0 O________OP___ jtwc_io IO051971 24.4000 86.2000 -1 24.4000 86.2000 TC 25 24.3626 86.1865 1 7 296
1971196N20089 1971 74 NI BB NOT_NAMED 1971-07-16 21:00:00 TS 24.5118 85.8465 main 0 0 P________PP___ IO051971 24.5301 85.8350 -1 24.5301 85.8350 TC 25 24.4752 85.8696 1 6 288
1971196N20089 1971 74 NI BB NOT_NAMED 1971-07-17 00:00:00 TS 24.5834 85.5226 main 0 0 O________OP___ jtwc_io IO051971 24.6000 85.5000 -1 24.6000 85.5000 TC 25 24.5502 85.5679 1 5 280
1971196N20089 1971 74 NI BB NOT_NAMED 1971-07-17 03:00:00 TS 24.6049 85.2799 main 0 0 P________PO___ IO051971 24.6074 85.2699 -1 24.6074 85.2699 TC 25 24.6000 85.3000 1 4 275
1971196N20089 1971 74 NI BB NOT_NAMED 1971-07-17 06:00:00 TS 24.6154 85.0963 main 0 0 O________OP___ jtwc_io IO051971 24.6000 85.1000 -1 24.6000 85.1000 TC 25 24.6462 85.0888 1 3 280
1971196N20089 1971 74 NI BB NOT_NAMED 1971-07-17 09:00:00 TS 24.6573 84.9374 main 0 0 P________PP___ IO051971 24.6499 84.9500 -1 24.6499 84.9500 TC 25 24.6721 84.9122 1 3 286
1971196N20089 1971 74 NI BB NOT_NAMED 1971-07-17 12:00:00 TS 24.6956 84.7848 main 0 0 O________OP___ jtwc_io IO051971 24.7000 84.8000 -1 24.7000 84.8000 TC 25 24.6869 84.7545 1 3 278
1971196N20089 1971 74 NI BB NOT_NAMED 1971-07-17 15:00:00 TS 24.7000 84.6000 main 0 0 P________PO___ IO051971 24.7000 84.5999 -1 24.7000 84.5999 TC 25 24.7000 84.6000 1 3 272
1971196N20089 1971 74 NI BB NOT_NAMED 1971-07-17 18:00:00 TS 24.7083 84.4056 main 0 0 O________OP___ jtwc_io IO051971 24.7000 84.4000 -1 24.7000 84.4000 TC 25 24.7250 84.4169 1 3 279
1971196N20089 1971 74 NI BB NOT_NAMED 1971-07-17 21:00:00 TS 24.7500 84.2450 main 0 0 P________PP___ IO051971 24.7499 84.2500 -1 24.7499 84.2500 TC 25 24.7500 84.2350 1 3 286
1971196N20089 1971 74 NI BB NOT_NAMED 1971-07-18 00:00:00 TS 24.7917 84.0869 main 0 0 O________OP___ jtwc_io IO051971 24.8000 84.1000 -1 24.8000 84.1000 TC 25 24.7750 84.0606 1 3 279
1971196N20089 1971 74 NI BB NOT_NAMED 1971-07-18 03:00:00 TS 24.8000 83.8950 main 0 0 P________PO___ IO051971 24.8000 83.8924 -1 24.8000 83.8924 TC 25 24.8000 83.9000 1 3 273
1971196N20089 1971 74 NI BB NOT_NAMED 1971-07-18 06:00:00 TS 24.8083 83.7175 main 0 0 O________OP___ jtwc_io IO051971 24.8000 83.7000 -1 24.8000 83.7000 TC 25 24.8249 83.7525 1 3 280
1971196N20089 1971 74 NI BB NOT_NAMED 1971-07-18 09:00:00 TS 24.8499 83.5967 main 0 0 P________PP___ IO051971 24.8500 83.5850 -1 24.8500 83.5850 TC 25 24.8499 83.6200 1 2 293
1971196N20089 1971 74 NI BB NOT_NAMED 1971-07-18 12:00:00 TS 24.8917 83.5008 main 0 0 O________OP___ jtwc_io IO051971 24.9000 83.5000 -1 24.9000 83.5000 TC 25 24.8750 83.5025 1 2 285
1971196N20089 1971 74 NI BB NOT_NAMED 1971-07-18 15:00:00 TS 24.9000 83.3950 main 0 0 P________PO___ IO051971 24.9000 83.3925 -1 24.9000 83.3925 TC 25 24.9000 83.4000 1 2 276
1971196N20089 1971 74 NI BB NOT_NAMED 1971-07-18 18:00:00 TS 24.9097 83.2995 main 0 0 O________OP___ jtwc_io IO051971 24.9000 83.3000 -1 24.9000 83.3000 TC 25 24.9290 83.2984 1 2 289
1971196N20089 1971 74 NI BB NOT_NAMED 1971-07-18 21:00:00 TS 24.9525 83.2325 main 0 0 P________PP___ IO051971 24.9500 83.2425 -1 24.9500 83.2425 TC 25 24.9575 83.2125 1 1 308
1971196N20089 1971 74 NI BB NOT_NAMED 1971-07-19 00:00:00 TS 24.9941 83.1818 main 0 0 O________OP___ jtwc_io IO051971 25.0000 83.2000 -1 25.0000 83.2000 TC 25 24.9822 83.1453 1 1 298
1971196N20089 1971 74 NI BB NOT_NAMED 1971-07-19 03:00:00 TS 25.0050 83.1233 main 0 0 P________PO___ IO051971 25.0075 83.1350 -1 25.0075 83.1350 TC 25 25.0000 83.1000 1 1 276
1971196N20089 1971 74 NI BB NOT_NAMED 1971-07-19 06:00:00 TS 25.0010 83.1104 main 0 0 O________OP___ jtwc_io IO051971 25.0000 83.1000 -1 25.0000 83.1000 TC 25 25.0029 83.1312 1 0 98
1971196N20089 1971 74 NI BB NOT_NAMED 1971-07-19 09:00:00 TS 24.9998 83.1733 main 0 0 P________PP___ IO051971 25.0000 83.1725 -1 25.0000 83.1725 TC 25 24.9995 83.1749 1 1 92
1971196N20089 1971 74 NI BB NOT_NAMED 1971-07-19 12:00:00 TS 24.9988 83.1937 main 0 0 O________OP___ jtwc_io IO051971 25.0000 83.2000 -1 25.0000 83.2000 TC 25 24.9964 83.1812 1 1 267
1971196N20089 1971 74 NI BB NOT_NAMED 1971-07-19 15:00:00 TS 24.9950 83.0733 main 0 0 P________PO___ IO051971 24.9924 83.0599 -1 24.9924 83.0599 TC 25 25.0000 83.1000 1 3 271
1971196N20089 1971 74 NI BB NOT_NAMED 1971-07-19 18:00:00 TS 25.0074 82.8215 main 0 0 O________OP___ jtwc_io IO051971 25.0000 82.8000 -1 25.0000 82.8000 TC 25 25.0223 82.8645 1 5 276
1971196N20089 1971 74 NI BB NOT_NAMED 1971-07-19 21:00:00 TS 25.0503 82.4901 main 0 0 P________PP___ IO051971 25.0501 82.4651 -1 25.0501 82.4651 TC 25 25.0506 82.5402 1 6 278
1971196N20089 1971 74 NI BB NOT_NAMED 1971-07-20 00:00:00 TS 25.0929 82.1236 main 0 0 O________OP___ jtwc_io IO051971 25.1000 82.1000 -1 25.1000 82.1000 TC 25 25.0786 82.1708 1 6 275
1971196N20089 1971 74 NI BB NOT_NAMED 1971-07-20 03:00:00 TS 25.1049 81.8000 main 0 0 P________PO___ IO051971 25.1073 81.7999 -1 25.1073 81.7999 TC 25 25.1000 81.8000 1 6 271
1971196N20089 1971 74 NI BB NOT_NAMED 1971-07-20 06:00:00 TS 25.1011 81.4881 main 0 0 O________OP___ jtwc_io IO051971 25.1000 81.5000 -1 25.1000 81.5000 TC 25 25.1032 81.4643 1 6 270
1971196N20089 1971 74 NI BB NOT_NAMED 1971-07-20 09:00:00 TS 25.1001 81.1316 main 0 0 P________PP___ IO051971 25.1001 81.1275 -1 25.1001 81.1275 TC 25 25.1002 81.1398 1 6 270
1971196N20089 1971 74 NI BB NOT_NAMED 1971-07-20 12:00:00 TS 25.0990 80.8152 main 0 0 O________OP___ jtwc_io IO051971 25.1000 80.8000 -1 25.1000 80.8000 TC 25 25.0970 80.8455 1 5 269
1971196N20089 1971 74 NI BB NOT_NAMED 1971-07-20 15:00:00 TS 25.0949 80.6133 main 0 0 P________PO___ IO051971 25.0924 80.6200 -1 25.0924 80.6200 TC 25 25.1000 80.6000 1 3 272
1971196N20089 1971 74 NI BB NOT_NAMED 1971-07-20 18:00:00 TS 25.1072 80.4749 main 0 0 O________OP___ jtwc_io IO051971 25.1000 80.5000 -1 25.1000 80.5000 TC 25 25.1215 80.4247 1 3 282
1971196N20089 1971 74 NI BB NOT_NAMED 1971-07-20 21:00:00 TS 25.1499 80.3276 main 0 0 P________PP___ IO051971 25.1500 80.3425 -1 25.1500 80.3425 TC 25 25.1496 80.2976 1 3 289
1971196N20089 1971 74 NI BB NOT_NAMED 1971-07-21 00:00:00 TS 25.1926 80.1989 main 0 0 O________OP___ jtwc_io IO051971 25.2000 80.2000 -1 25.2000 80.2000 TC 25 25.1779 80.1966 1 2 285
1971196N20089 1971 74 NI BB NOT_NAMED 1971-07-21 03:00:00 TS 25.2050 80.1000 main 0 0 P________PO___ IO051971 25.2075 80.1000 -1 25.2075 80.1000 TC 25 25.2000 80.1000 1 2 273
1971196N20089 1971 74 NI BB NOT_NAMED 1971-07-21 06:00:00 TS 25.2024 79.9849 main 0 0 O________OP___ jtwc_io IO051971 25.2000 80.0000 -1 25.2000 80.0000 TC 25 25.2072 79.9547 1 2 269
1971196N20089 1971 74 NI BB NOT_NAMED 1971-07-21 09:00:00 TS 25.2025 79.8375 main 0 0 P________PP___ IO051971 25.2000 79.8500 -1 25.2000 79.8500 TC 25 25.2076 79.8125 1 3 270
1971196N20089 1971 74 NI BB NOT_NAMED 1971-07-21 12:00:00 TS 25.2014 79.6963 main 0 0 O________OP___ jtwc_io IO051971 25.2000 79.7000 -1 25.2000 79.7000 TC 25 25.2041 79.6890 1 2 269
1971196N20089 1971 74 NI BB NOT_NAMED 1971-07-21 15:00:00 TS 25.2000 79.5850 main 0 0 P________PO___ IO051971 25.2000 79.5775 -1 25.2000 79.5775 TC 25 25.2000 79.6000 1 2 269
1971196N20089 1971 74 NI BB NOT_NAMED 1971-07-21 18:00:00 TS 25.1991 79.5225 main 0 0 O________OP___ jtwc_io IO051971 25.2000 79.5000 -1 25.2000 79.5000 TC 25 25.1978 79.5563 1 1 269
1971196N20089 1971 74 NI BB NOT_NAMED 1971-07-21 21:00:00 TS 25.1989 79.5114 main 0 0 P________PP___ IO051971 25.2000 79.4825 -1 25.2000 79.4825 TC 25 25.1975 79.5500 1 0 0
1971196N20089 1971 74 NI BB NOT_NAMED 1971-07-22 00:00:00 TS 25.1992 79.5344 main 0 0 O________OP___ jtwc_io IO051971 25.2000 79.5000 -1 25.2000 79.5000 TC 25 25.1984 79.5688 1 1 89
1971196N20089 1971 74 NI BB NOT_NAMED 1971-07-22 03:00:00 NR 25.2000 79.6000 main 0 __________O___ IO051971 -1 TC 25.2000 79.6000 1 1 89

About IBTrACS Database

This database is a web-friendly format of International Best Track Archive for Climate Stewardship (IBTrACS), a global best track data archive curated by NOAA dating back to 1842.

Updated: 2021-12-08